Time;durP1;ratioP1;P1;durP2;ratioP2;P2;SDS_P1;SDS_P2;PMS_P1;PMS_P2;Temp;Humidity;BMP_temperature;BMP_pressure;BME280_temperature;BME280_humidity;BME280_pressure;Samples;Min_cycle;Max_cycle;Signal;HPM_P1;HPM_P2
2023/08/11 00:00:21;;;;;;;4.93;2.88;;;20.10;99.90;;;;;;5061774;28;20044;-82
2023/08/11 00:02:50;;;;;;;3.35;2.40;;;20.00;99.90;;;;;;5074830;28;20037;-82
2023/08/11 00:05:17;;;;;;;5.82;2.70;;;20.00;99.90;;;;;;5079069;28;20029;-85
2023/08/11 00:07:50;;;;;;;4.70;2.85;;;20.10;99.90;;;;;;5066362;28;20112;-81
2023/08/11 00:10:17;;;;;;;3.53;3.05;;;20.00;99.90;;;;;;5073928;28;20082;-85
2023/08/11 00:12:43;;;;;;;4.18;2.88;;;20.10;99.90;;;;;;5080753;28;20432;-83
2023/08/11 00:15:08;;;;;;;3.33;2.95;;;20.00;99.90;;;;;;5079489;28;20036;-85
2023/08/11 00:17:34;;;;;;;4.93;3.50;;;20.00;99.90;;;;;;5058396;28;20367;-84
2023/08/11 00:20:00;;;;;;;3.00;2.70;;;20.00;99.90;;;;;;5082133;28;20032;-81
2023/08/11 00:22:26;;;;;;;3.45;2.88;;;19.90;99.90;;;;;;5097870;28;20055;-82
2023/08/11 00:24:52;;;;;;;4.97;2.90;;;19.90;99.90;;;;;;5054682;28;20020;-80
2023/08/11 00:27:19;;;;;;;4.65;3.00;;;19.80;99.90;;;;;;5078955;28;20020;-81
2023/08/11 00:29:45;;;;;;;5.88;3.40;;;19.70;99.90;;;;;;5065739;28;20024;-81
2023/08/11 00:32:11;;;;;;;3.35;3.05;;;20.50;99.90;;;;;;5082348;28;20124;-82
2023/08/11 00:34:37;;;;;;;4.40;3.80;;;19.50;99.90;;;;;;5092167;28;20024;-82
2023/08/11 00:37:03;;;;;;;4.78;4.28;;;19.50;99.90;;;;;;5081626;28;20101;-83
2023/08/11 00:39:29;;;;;;;4.72;4.25;;;19.40;99.90;;;;;;5065732;28;20617;-81
2023/08/11 00:41:55;;;;;;;4.68;4.20;;;19.40;99.90;;;;;;5080972;28;20028;-81
2023/08/11 00:44:21;;;;;;;6.78;4.15;;;19.40;99.90;;;;;;5077351;28;20044;-82
2023/08/11 00:46:47;;;;;;;5.85;3.83;;;19.30;99.90;;;;;;5081654;28;20180;-84
2023/08/11 00:49:16;;;;;;;7.10;4.10;;;19.20;99.90;;;;;;5045341;28;20330;-81
2023/08/11 00:51:43;;;;;;;5.45;4.53;;;19.20;99.90;;;;;;5062312;28;20299;-84
2023/08/11 00:54:10;;;;;;;4.80;3.97;;;19.20;99.90;;;;;;5092796;28;20097;-83
2023/08/11 00:56:37;;;;;;;6.35;4.07;;;19.20;99.90;;;;;;5066919;28;20028;-82
2023/08/11 00:59:04;;;;;;;7.38;4.72;;;19.20;99.90;;;;;;5076555;28;20218;-82
2023/08/11 01:01:29;;;;;;;5.68;4.65;;;19.10;99.90;;;;;;5097401;28;20025;-82
2023/08/11 01:03:55;;;;;;;5.63;4.57;;;19.10;99.90;;;;;;5081258;28;20043;-84
2023/08/11 01:06:29;;;;;;;5.38;4.53;;;18.90;99.90;;;;;;5063232;28;20032;-81
2023/08/11 01:09:32;;;;;;;6.72;5.03;;;17.90;99.90;;;;;;5063711;28;20056;-82
2023/08/11 01:12:23;;;;;;;5.60;4.97;;;18.90;99.90;;;;;;5080147;28;20137;-83
2023/08/11 01:15:15;;;;;;;6.55;5.65;;;18.90;99.90;;;;;;5074391;28;20036;-83
2023/08/11 01:17:42;;;;;;;6.25;5.55;;;18.80;99.90;;;;;;5065909;28;20051;-83
2023/08/11 01:20:10;;;;;;;6.18;5.18;;;18.80;99.90;;;;;;5081466;28;20036;-81
2023/08/11 01:22:43;;;;;;;5.47;4.97;;;18.90;99.90;;;;;;5064182;28;20028;-83
2023/08/11 01:25:10;;;;;;;6.85;5.53;;;18.90;99.90;;;;;;5059588;28;20021;-83
2023/08/11 01:27:44;;;;;;;6.53;5.90;;;18.90;99.90;;;;;;5069596;28;20031;-81
2023/08/11 01:30:11;;;;;;;7.28;6.30;;;18.70;99.90;;;;;;5057202;28;20233;-81
2023/08/11 01:32:38;;;;;;;10.95;6.78;;;18.70;99.90;;;;;;5057674;28;20353;-83
2023/08/11 01:35:09;;;;;;;7.95;5.88;;;18.70;99.90;;;;;;5076108;28;20078;-83
2023/08/11 01:37:35;;;;;;;6.60;6.00;;;18.70;99.90;;;;;;5069859;28;20047;-81
2023/08/11 01:40:01;;;;;;;9.32;7.32;;;18.60;99.90;;;;;;5057866;28;20028;-83
2023/08/11 01:42:27;;;;;;;10.55;7.15;;;18.70;99.90;;;;;;5056092;28;20100;-80
2023/08/11 01:44:52;;;;;;;8.85;7.90;;;18.60;99.90;;;;;;5042495;28;20039;-83
2023/08/11 01:47:19;;;;;;;11.05;7.47;;;18.60;99.90;;;;;;5057879;28;20037;-82
2023/08/11 01:49:47;;;;;;;10.15;7.85;;;18.70;99.90;;;;;;5063493;28;20029;-81
2023/08/11 01:52:13;;;;;;;10.18;7.93;;;18.60;99.90;;;;;;5058326;28;20067;-81
2023/08/11 01:54:42;;;;;;;10.35;7.93;;;18.60;99.90;;;;;;5038704;28;20032;-82
2023/08/11 01:57:09;;;;;;;9.30;8.30;;;18.70;99.90;;;;;;5075145;28;20234;-83
2023/08/11 01:59:35;;;;;;;8.88;7.75;;;18.60;99.90;;;;;;5062557;28;20227;-81
2023/08/11 02:02:01;;;;;;;8.32;7.53;;;18.40;99.90;;;;;;5047810;28;20040;-83
2023/08/11 02:04:28;;;;;;;8.90;7.80;;;18.60;99.90;;;;;;5061253;28;20218;-81
2023/08/11 02:06:54;;;;;;;9.10;8.20;;;18.50;99.90;;;;;;5051652;28;20079;-82
2023/08/11 02:09:20;;;;;;;10.55;7.70;;;18.50;99.90;;;;;;5089527;28;20035;-81
2023/08/11 02:11:47;;;;;;;12.57;9.05;;;18.60;99.90;;;;;;5103939;28;20067;-82
2023/08/11 02:14:12;;;;;;;9.50;8.50;;;18.50;99.90;;;;;;5069206;28;20057;-81
2023/08/11 02:16:38;;;;;;;9.70;8.50;;;18.50;99.90;;;;;;5065083;28;20046;-82
2023/08/11 02:19:05;;;;;;;9.77;8.35;;;18.60;99.90;;;;;;5084326;28;20032;-83
2023/08/11 02:21:31;;;;;;;10.45;8.68;;;18.50;99.90;;;;;;5072047;28;20359;-81
2023/08/11 02:23:56;;;;;;;10.18;9.18;;;18.50;99.90;;;;;;5067242;28;20040;-82
2023/08/11 02:26:23;;;;;;;9.50;8.20;;;18.50;99.90;;;;;;5060265;28;20038;-85
2023/08/11 02:28:49;;;;;;;9.77;8.75;;;18.50;99.90;;;;;;5092438;28;20028;-85
2023/08/11 02:31:19;;;;;;;12.90;8.80;;;18.40;99.90;;;;;;5095558;28;20073;-85
2023/08/11 02:33:45;;;;;;;11.10;8.82;;;18.40;99.90;;;;;;5079488;28;20131;-84
2023/08/11 02:36:10;;;;;;;9.65;8.65;;;18.50;99.90;;;;;;5050004;28;20191;-82
2023/08/11 02:38:36;;;;;;;9.25;8.25;;;19.50;99.90;;;;;;5076150;28;20311;-82
2023/08/11 02:41:03;;;;;;;8.55;7.57;;;18.40;99.90;;;;;;5076562;28;20024;-84
2023/08/11 02:43:29;;;;;;;11.20;8.65;;;18.30;99.90;;;;;;5059180;28;20244;-81
2023/08/11 02:45:54;;;;;;;10.02;8.50;;;18.10;99.90;;;;;;5095511;28;20043;-81
2023/08/11 02:48:21;;;;;;;9.13;8.23;;;18.10;99.90;;;;;;5091810;28;20091;-83
2023/08/11 02:50:46;;;;;;;8.63;7.72;;;18.30;99.90;;;;;;5048922;28;20023;-81
2023/08/11 02:53:12;;;;;;;8.95;8.05;;;18.20;99.90;;;;;;5079199;28;20256;-80
2023/08/11 02:55:38;;;;;;;9.40;7.78;;;18.10;99.90;;;;;;5044290;28;20031;-81
2023/08/11 02:58:04;;;;;;;10.88;8.95;;;18.30;99.90;;;;;;5093074;28;20019;-81
2023/08/11 03:00:29;;;;;;;9.68;8.10;;;18.20;99.90;;;;;;5093988;28;20049;-84
2023/08/11 03:02:56;;;;;;;12.38;8.63;;;18.10;99.90;;;;;;5093761;28;20117;-82
2023/08/11 03:05:22;;;;;;;10.88;9.70;;;18.30;99.90;;;;;;5082964;28;20023;-82
2023/08/11 03:07:51;;;;;;;10.27;9.25;;;18.10;99.90;;;;;;5078333;28;20052;-84
2023/08/11 03:10:17;;;;;;;10.77;9.25;;;18.20;99.90;;;;;;5085244;28;20019;-84
2023/08/11 03:12:43;;;;;;;9.75;8.45;;;18.50;99.90;;;;;;5076683;28;20080;-81
2023/08/11 03:15:09;;;;;;;9.77;8.77;;;18.10;99.90;;;;;;5091432;28;20103;-83
2023/08/11 03:17:38;;;;;;;9.77;8.73;;;18.30;99.90;;;;;;5092100;28;20027;-84
2023/08/11 03:20:12;;;;;;;10.93;9.80;;;18.50;99.90;;;;;;5058527;28;20036;-84
2023/08/11 03:22:38;;;;;;;11.40;10.15;;;18.10;99.90;;;;;;5074052;28;20067;-83
2023/08/11 03:25:04;;;;;;;11.63;10.15;;;18.10;99.90;;;;;;5093370;28;20095;-85
2023/08/11 03:27:30;;;;;;;10.07;9.07;;;18.10;99.90;;;;;;5042408;28;20032;-83
2023/08/11 03:30:02;;;;;;;11.50;10.30;;;18.20;99.90;;;;;;5075108;28;20066;-82
2023/08/11 03:32:28;;;;;;;10.23;9.23;;;18.20;99.90;;;;;;5093934;28;20040;-83
2023/08/11 03:34:54;;;;;;;11.23;9.15;;;18.00;99.90;;;;;;5041994;28;20032;-81
2023/08/11 03:37:19;;;;;;;10.95;9.30;;;18.00;99.90;;;;;;5062252;28;20024;-79
2023/08/11 03:39:46;;;;;;;11.38;10.23;;;18.00;99.90;;;;;;5074699;28;20602;-81
2023/08/11 03:42:12;;;;;;;10.50;9.40;;;18.10;99.90;;;;;;5078113;28;20065;-80
2023/08/11 03:44:38;;;;;;;11.88;10.07;;;18.10;99.90;;;;;;5076554;28;20310;-83
2023/08/11 03:47:05;;;;;;;11.18;10.00;;;18.00;99.90;;;;;;5084191;28;20035;-82
2023/08/11 03:49:34;;;;;;;11.73;9.65;;;18.00;99.90;;;;;;5066211;28;20305;-82
2023/08/11 03:52:00;;;;;;;10.27;9.27;;;18.00;99.90;;;;;;5077271;28;20096;-82
2023/08/11 03:54:26;;;;;;;11.07;9.65;;;17.90;99.90;;;;;;5084990;28;20035;-82
2023/08/11 03:56:52;;;;;;;10.63;9.45;;;18.10;99.90;;;;;;5064130;28;20024;-82
2023/08/11 03:59:18;;;;;;;10.77;8.95;;;18.00;99.90;;;;;;5086837;28;20039;-81
2023/08/11 04:01:43;;;;;;;14.02;9.27;;;18.10;99.90;;;;;;5097397;28;20386;-82
2023/08/11 04:04:12;;;;;;;9.65;8.27;;;17.90;99.90;;;;;;5103039;28;20046;-81
2023/08/11 04:06:38;;;;;;;10.60;9.50;;;18.10;99.90;;;;;;5101594;28;20020;-85
2023/08/11 04:09:07;;;;;;;11.68;9.13;;;18.00;99.90;;;;;;5067369;28;20055;-80
2023/08/11 04:11:33;;;;;;;10.00;9.00;;;18.00;99.90;;;;;;5080410;28;20036;-81
2023/08/11 04:13:58;;;;;;;10.80;8.98;;;18.20;99.90;;;;;;5082596;28;20031;-84
2023/08/11 04:16:24;;;;;;;11.02;9.88;;;18.10;99.90;;;;;;5068177;28;20023;-82
2023/08/11 04:18:50;;;;;;;11.65;9.15;;;18.20;99.90;;;;;;5080185;28;20034;-80
2023/08/11 04:21:17;;;;;;;11.48;8.13;;;18.00;99.90;;;;;;5082669;28;20044;-82
2023/08/11 04:23:43;;;;;;;9.88;8.30;;;18.20;99.90;;;;;;5080920;28;20237;-82
2023/08/11 04:26:10;;;;;;;9.98;8.50;;;18.10;99.90;;;;;;5069632;28;20024;-85
2023/08/11 04:28:36;;;;;;;8.55;7.65;;;18.10;99.90;;;;;;5089408;28;20063;-82
2023/08/11 04:31:03;;;;;;;10.00;7.88;;;18.20;99.90;;;;;;5080964;28;20032;-81
2023/08/11 04:33:30;;;;;;;9.20;7.88;;;18.10;99.90;;;;;;5088552;28;20326;-80
2023/08/11 04:35:55;;;;;;;8.13;7.40;;;18.30;99.90;;;;;;5104335;28;20023;-79
2023/08/11 04:38:21;;;;;;;9.25;7.53;;;18.10;99.90;;;;;;5073522;28;20038;-81
2023/08/11 04:40:50;;;;;;;9.80;7.63;;;18.20;99.90;;;;;;5103979;28;20311;-82
2023/08/11 04:43:17;;;;;;;10.30;8.10;;;18.30;99.90;;;;;;5106770;28;20042;-82
2023/08/11 04:45:42;;;;;;;8.57;7.68;;;18.20;99.90;;;;;;5068649;28;20024;-81
2023/08/11 04:48:08;;;;;;;8.32;7.15;;;18.30;99.90;;;;;;5071294;28;20032;-80
2023/08/11 04:50:34;;;;;;;10.07;7.05;;;18.40;99.90;;;;;;5051237;28;20031;-81
2023/08/11 04:53:00;;;;;;;8.05;7.22;;;18.30;99.90;;;;;;5081327;28;20071;-81
2023/08/11 04:55:26;;;;;;;9.07;7.25;;;18.50;99.90;;;;;;5082012;28;20032;-80
2023/08/11 04:57:52;;;;;;;9.45;6.97;;;18.50;99.90;;;;;;5087740;28;20050;-81
2023/08/11 05:00:18;;;;;;;6.55;5.68;;;18.50;99.90;;;;;;5055868;28;20035;-80
2023/08/11 05:02:44;;;;;;;8.32;6.78;;;18.80;99.90;;;;;;5086171;28;20289;-80
2023/08/11 05:05:10;;;;;;;9.02;6.40;;;18.80;99.90;;;;;;5088099;28;20019;-80
2023/08/11 05:07:37;;;;;;;8.93;6.72;;;18.70;99.90;;;;;;5085646;28;20055;-80
2023/08/11 05:10:04;;;;;;;6.38;5.78;;;18.90;99.90;;;;;;5077386;28;20035;-79
2023/08/11 05:12:30;;;;;;;8.18;6.90;;;18.90;99.90;;;;;;5067934;28;20032;-81
2023/08/11 05:14:56;;;;;;;10.02;6.80;;;18.70;99.90;;;;;;5085231;28;20107;-80
2023/08/11 05:17:21;;;;;;;6.72;5.95;;;18.70;99.90;;;;;;5083511;28;20023;-79
2023/08/11 05:19:47;;;;;;;7.28;6.40;;;18.80;99.90;;;;;;5066950;28;20117;-80
2023/08/11 05:22:13;;;;;;;7.25;6.40;;;18.80;99.90;;;;;;5088422;28;20031;-79
2023/08/11 05:24:38;;;;;;;8.95;6.18;;;19.00;99.90;;;;;;5083503;28;20218;-81
2023/08/11 05:27:05;;;;;;;7.50;6.70;;;19.00;99.90;;;;;;5102926;28;20175;-80
2023/08/11 05:29:31;;;;;;;7.68;6.10;;;18.90;99.90;;;;;;5055429;28;20159;-79
2023/08/11 05:31:57;;;;;;;7.28;5.65;;;18.90;99.90;;;;;;5083222;28;20032;-80
2023/08/11 05:34:23;;;;;;;7.90;6.88;;;18.90;99.90;;;;;;5103181;28;20031;-81
2023/08/11 05:36:48;;;;;;;7.30;6.03;;;19.00;99.90;;;;;;5100798;28;20047;-79
2023/08/11 05:39:14;;;;;;;10.70;7.35;;;19.00;99.90;;;;;;5079631;28;20027;-67
2023/08/11 05:41:44;;;;;;;8.15;6.40;;;19.10;99.90;;;;;;5085068;28;20028;-76
2023/08/11 05:44:09;;;;;;;6.70;6.07;;;19.20;99.90;;;;;;5068878;28;20295;-75
2023/08/11 05:46:35;;;;;;;6.70;6.10;;;19.30;99.90;;;;;;5063115;28;20020;-78
2023/08/11 05:49:01;;;;;;;8.05;5.75;;;19.20;99.90;;;;;;5052851;28;20160;-79
2023/08/11 05:51:26;;;;;;;9.13;6.97;;;19.30;99.90;;;;;;5066341;28;20318;-79
2023/08/11 05:53:52;;;;;;;7.50;6.70;;;19.30;99.90;;;;;;5078175;28;20053;-79
2023/08/11 05:56:18;;;;;;;8.00;6.53;;;19.50;99.90;;;;;;5083385;28;20075;-79
2023/08/11 05:58:44;;;;;;;6.80;5.32;;;19.50;99.90;;;;;;5083114;28;20049;-77
2023/08/11 06:01:09;;;;;;;9.25;6.13;;;19.60;99.90;;;;;;5094878;28;20066;-79
2023/08/11 06:03:35;;;;;;;6.90;6.20;;;19.50;99.90;;;;;;5047464;28;20253;-78
2023/08/11 06:06:04;;;;;;;8.85;6.25;;;19.50;99.90;;;;;;5085391;28;20099;-78
2023/08/11 06:08:31;;;;;;;7.35;5.85;;;19.80;99.90;;;;;;5081317;28;20328;-79
2023/08/11 06:10:57;;;;;;;6.40;5.75;;;20.30;99.90;;;;;;5102038;28;20054;-78
2023/08/11 06:13:23;;;;;;;6.95;5.55;;;19.80;99.90;;;;;;5101263;28;20039;-78
2023/08/11 06:15:52;;;;;;;9.05;5.88;;;19.90;99.90;;;;;;5096126;28;20035;-78
2023/08/11 06:18:18;;;;;;;8.93;5.63;;;19.80;99.90;;;;;;5084182;28;20027;-79
2023/08/11 06:20:44;;;;;;;7.22;5.75;;;19.80;99.90;;;;;;5102091;28;20326;-78
2023/08/11 06:23:10;;;;;;;8.23;5.05;;;19.80;99.90;;;;;;5079858;28;20046;-78
2023/08/11 06:25:36;;;;;;;7.80;5.80;;;19.90;99.90;;;;;;5100816;28;20019;-79
2023/08/11 06:28:03;;;;;;;9.30;6.30;;;20.20;99.90;;;;;;5081727;28;20235;-79
2023/08/11 06:30:28;;;;;;;7.22;5.70;;;20.20;99.90;;;;;;5083508;28;20036;-77
2023/08/11 06:32:54;;;;;;;8.20;5.18;;;20.30;99.90;;;;;;5063342;28;20032;-79
2023/08/11 06:35:21;;;;;;;7.10;5.07;;;20.20;99.90;;;;;;5091948;28;20032;-77
2023/08/11 06:37:46;;;;;;;6.13;5.07;;;20.30;99.90;;;;;;5075822;28;20027;-78
2023/08/11 06:40:13;;;;;;;6.57;5.03;;;20.60;99.90;;;;;;5084619;28;20098;-78
2023/08/11 06:42:39;;;;;;;5.57;4.80;;;20.50;99.90;;;;;;5082459;28;20267;-78
2023/08/11 06:45:05;;;;;;;6.80;4.85;;;20.70;99.90;;;;;;5067016;28;20028;-78
2023/08/11 06:47:31;;;;;;;5.35;4.85;;;20.80;99.90;;;;;;5068622;28;20023;-80
2023/08/11 06:49:58;;;;;;;6.25;4.68;;;21.00;99.90;;;;;;5100868;28;20384;-81
2023/08/11 06:52:24;;;;;;;5.75;4.80;;;21.10;99.90;;;;;;5059759;28;20214;-80
2023/08/11 06:54:49;;;;;;;7.43;5.10;;;21.10;99.90;;;;;;5055829;28;20034;-77
2023/08/11 06:57:18;;;;;;;5.68;4.65;;;21.40;99.90;;;;;;5077457;28;20030;-78
2023/08/11 06:59:44;;;;;;;6.03;4.60;;;21.40;99.90;;;;;;5072599;28;20036;-78
2023/08/11 07:02:09;;;;;;;7.63;4.90;;;21.40;99.90;;;;;;5073072;28;20102;-79
2023/08/11 07:04:35;;;;;;;6.20;5.50;;;21.60;99.90;;;;;;5068077;28;20081;-78
2023/08/11 07:07:01;;;;;;;6.78;4.97;;;21.50;99.90;;;;;;5058828;28;20036;-78
2023/08/11 07:09:27;;;;;;;7.90;5.10;;;21.40;99.90;;;;;;5078652;28;20065;-79
2023/08/11 07:11:52;;;;;;;6.65;5.60;;;21.80;99.90;;;;;;5066393;28;20098;-80
2023/08/11 07:14:18;;;;;;;6.07;5.25;;;21.80;99.90;;;;;;5058651;28;20039;-80
2023/08/11 07:16:44;;;;;;;8.40;5.00;;;21.70;99.90;;;;;;5063197;28;20065;-79
2023/08/11 07:19:09;;;;;;;8.20;5.38;;;21.90;99.90;;;;;;5062097;28;20033;-79
2023/08/11 07:21:35;;;;;;;5.97;4.95;;;21.90;99.90;;;;;;5063460;28;20112;-79
2023/08/11 07:24:01;;;;;;;10.18;5.30;;;22.10;99.90;;;;;;5063229;28;20276;-80
2023/08/11 07:26:27;;;;;;;7.75;4.43;;;22.10;99.90;;;;;;5098195;28;20035;-80
2023/08/11 07:28:52;;;;;;;7.38;4.75;;;22.10;99.90;;;;;;5073797;28;20108;-80
2023/08/11 07:31:18;;;;;;;5.00;4.43;;;22.20;99.90;;;;;;5076573;28;20035;-79
2023/08/11 07:33:44;;;;;;;4.68;4.00;;;22.30;99.90;;;;;;5093720;28;20272;-78
2023/08/11 07:36:10;;;;;;;5.20;4.22;;;22.50;99.90;;;;;;5077001;28;20280;-79
2023/08/11 07:38:35;;;;;;;4.70;4.00;;;22.50;99.90;;;;;;5049459;28;20042;-77
2023/08/11 07:41:01;;;;;;;5.63;4.68;;;22.50;99.90;;;;;;5057175;28;20218;-79
2023/08/11 07:43:27;;;;;;;8.20;5.03;;;22.70;99.90;;;;;;5097693;28;20042;-78
2023/08/11 07:45:52;;;;;;;4.93;4.03;;;22.60;99.90;;;;;;5048869;28;20067;-78
2023/08/11 07:48:18;;;;;;;5.25;4.00;;;22.70;99.90;;;;;;5078795;28;20091;-79
2023/08/11 07:50:45;;;;;;;5.70;4.43;;;22.90;99.90;;;;;;5063998;28;20028;-79
2023/08/11 07:53:10;;;;;;;5.78;4.03;;;22.90;99.90;;;;;;5082537;28;20040;-78
2023/08/11 07:55:36;;;;;;;4.50;4.10;;;22.90;99.90;;;;;;5083747;28;20100;-78
2023/08/11 07:58:03;;;;;;;6.47;4.80;;;23.20;99.90;;;;;;5056549;28;20042;-79
2023/08/11 08:00:29;;;;;;;4.22;3.80;;;23.30;99.90;;;;;;5063479;28;20031;-80
2023/08/11 08:02:55;;;;;;;7.18;4.40;;;23.30;99.90;;;;;;5079398;28;20055;-79
2023/08/11 08:05:21;;;;;;;5.75;4.03;;;23.40;99.90;;;;;;5099112;28;20030;-78
2023/08/11 08:07:47;;;;;;;4.32;3.88;;;23.40;99.90;;;;;;5076358;28;20099;-78
2023/08/11 08:10:14;;;;;;;7.35;4.30;;;23.60;99.90;;;;;;5076572;28;20063;-78
2023/08/11 08:12:43;;;;;;;6.78;4.55;;;23.60;99.90;;;;;;5082885;28;20103;-80
2023/08/11 08:15:10;;;;;;;5.10;4.28;;;23.70;99.90;;;;;;5099887;28;20278;-80
2023/08/11 08:17:36;;;;;;;7.28;3.92;;;23.60;99.90;;;;;;5085121;28;20318;-79
2023/08/11 08:20:04;;;;;;;4.57;4.07;;;23.90;99.90;;;;;;5062193;28;20264;-78
2023/08/11 08:22:32;;;;;;;5.85;4.15;;;23.90;99.90;;;;;;5072159;28;20031;-79
2023/08/11 08:24:58;;;;;;;5.78;4.32;;;24.00;99.90;;;;;;5077211;28;20191;-78
2023/08/11 08:27:24;;;;;;;9.27;4.50;;;24.10;99.90;;;;;;5082785;28;20160;-78
2023/08/11 08:29:51;;;;;;;4.95;3.90;;;24.10;99.90;;;;;;5062298;28;20059;-79
2023/08/11 08:32:17;;;;;;;4.05;3.70;;;24.20;99.90;;;;;;5084972;28;20326;-78
2023/08/11 08:34:43;;;;;;;5.07;3.88;;;24.30;99.90;;;;;;5094903;28;20022;-78
2023/08/11 08:37:09;;;;;;;4.03;3.63;;;24.50;99.90;;;;;;5079389;28;20053;-79
2023/08/11 08:39:35;;;;;;;4.65;3.75;;;24.40;99.90;;;;;;5080912;28;20042;-77
2023/08/11 08:42:02;;;;;;;4.93;4.05;;;24.60;99.90;;;;;;5074413;28;20191;-78
2023/08/11 08:44:28;;;;;;;7.95;4.10;;;24.60;99.90;;;;;;5047032;28;20036;-79
2023/08/11 08:46:55;;;;;;;5.47;3.85;;;24.70;99.90;;;;;;5049884;28;20137;-78
2023/08/11 08:49:28;;;;;;;4.40;3.22;;;24.70;99.90;;;;;;5071087;28;20066;-77
2023/08/11 08:51:54;;;;;;;3.95;3.40;;;24.80;99.90;;;;;;5095608;28;20020;-78
2023/08/11 08:54:21;;;;;;;4.68;3.05;;;25.00;99.90;;;;;;5073584;28;20031;-76
2023/08/11 08:56:47;;;;;;;5.82;3.50;;;25.10;99.90;;;;;;5096045;28;20380;-77
2023/08/11 08:59:12;;;;;;;4.68;3.97;;;25.20;99.90;;;;;;5043295;28;20066;-77
2023/08/11 09:01:38;;;;;;;3.78;3.45;;;25.20;99.90;;;;;;5083393;28;20035;-75
2023/08/11 09:04:08;;;;;;;4.30;3.42;;;25.30;99.90;;;;;;5100003;28;20099;-76
2023/08/11 09:06:35;;;;;;;4.07;3.20;;;25.40;99.90;;;;;;5100884;28;20081;-75
2023/08/11 09:09:03;;;;;;;3.45;3.00;;;25.40;99.90;;;;;;5096294;28;20207;-75
2023/08/11 09:11:29;;;;;;;5.60;3.53;;;25.50;99.90;;;;;;5090385;28;20228;-75
2023/08/11 09:14:02;;;;;;;7.40;3.45;;;25.60;99.90;;;;;;5083117;28;20036;-76
2023/08/11 09:16:28;;;;;;;6.28;3.20;;;25.70;99.90;;;;;;5076981;28;20090;-75
2023/08/11 09:18:53;;;;;;;4.93;2.95;;;25.80;99.90;;;;;;5101269;28;20249;-75
2023/08/11 09:21:23;;;;;;;5.63;3.72;;;25.80;99.90;;;;;;5098059;28;20048;-76
2023/08/11 09:23:55;;;;;;;6.13;3.33;;;25.90;99.90;;;;;;5086112;28;20078;-76
2023/08/11 09:26:22;;;;;;;5.63;3.40;;;26.10;99.90;;;;;;5083719;28;20579;-75
2023/08/11 09:28:53;;;;;;;4.00;3.10;;;26.10;99.90;;;;;;5096101;28;20039;-75
2023/08/11 09:31:25;;;;;;;5.25;3.03;;;26.20;99.90;;;;;;5100930;28;20040;-75
2023/08/11 09:33:52;;;;;;;5.30;3.13;;;26.50;99.90;;;;;;5095072;28;20095;-75
2023/08/11 09:36:19;;;;;;;3.47;2.78;;;26.60;99.90;;;;;;5074939;28;20066;-76
2023/08/11 09:38:49;;;;;;;5.72;3.00;;;26.90;99.90;;;;;;5073108;28;20103;-76
2023/08/11 09:41:15;;;;;;;4.25;3.13;;;27.10;99.90;;;;;;5099136;28;20042;-76
2023/08/11 09:43:47;;;;;;;4.75;3.30;;;27.10;99.90;;;;;;5099632;28;20107;-76
2023/08/11 09:46:13;;;;;;;3.20;2.47;;;27.30;99.90;;;;;;5087226;28;20023;-76
2023/08/11 09:48:38;;;;;;;4.75;3.42;;;27.40;99.90;;;;;;5082754;28;20028;-76
2023/08/11 09:51:10;;;;;;;5.05;3.38;;;27.40;99.90;;;;;;5066789;28;20218;-76
2023/08/11 09:53:40;;;;;;;3.38;3.00;;;27.60;99.90;;;;;;5083990;28;20031;-75
2023/08/11 09:56:09;;;;;;;3.15;2.50;;;27.70;99.90;;;;;;5087024;28;20192;-76
2023/08/11 09:58:38;;;;;;;6.05;3.10;;;27.90;99.90;;;;;;5091264;28;20036;-76
2023/08/11 10:01:07;;;;;;;5.38;3.13;;;28.10;99.90;;;;;;5101485;28;20051;-76
2023/08/11 10:03:40;;;;;;;3.72;2.58;;;28.10;99.90;;;;;;5096691;28;20099;-75
2023/08/11 10:06:08;;;;;;;4.13;2.63;;;28.30;99.90;;;;;;5093953;28;20036;-76
2023/08/11 10:08:34;;;;;;;4.55;2.72;;;28.00;99.90;;;;;;5100476;28;20174;-76
2023/08/11 10:11:00;;;;;;;3.50;2.75;;;28.10;99.90;;;;;;5101521;28;20043;-76
2023/08/11 10:13:28;;;;;;;2.88;2.50;;;28.30;99.90;;;;;;5100809;28;20215;-76
2023/08/11 10:15:55;;;;;;;3.75;2.63;;;28.30;7.90;;;;;;5100796;28;20039;-76
2023/08/11 10:18:21;;;;;;;3.30;2.63;;;28.60;1.00;;;;;;5098777;28;20106;-76
2023/08/11 10:20:51;;;;;;;4.70;2.78;;;28.30;99.90;;;;;;5076400;28;20040;-75
2023/08/11 10:23:18;;;;;;;5.60;2.67;;;28.50;1.00;;;;;;5080466;28;20036;-75
2023/08/11 10:25:45;;;;;;;4.10;2.70;;;28.50;73.10;;;;;;5080693;28;20090;-75
2023/08/11 10:28:12;;;;;;;3.58;2.50;;;28.60;62.00;;;;;;5096696;28;20299;-75
2023/08/11 10:30:40;;;;;;;3.17;2.53;;;28.90;93.10;;;;;;5101311;28;20028;-76
2023/08/11 10:33:09;;;;;;;5.07;3.28;;;28.70;99.90;;;;;;5084199;28;20043;-75
2023/08/11 10:35:51;;;;;;;3.20;2.55;;;28.70;1.00;;;;;;5100460;28;20039;-76
2023/08/11 10:38:26;;;;;;;2.60;2.25;;;29.00;99.90;;;;;;5097296;28;20035;-76
2023/08/11 10:41:05;;;;;;;4.53;2.55;;;28.80;98.60;;;;;;5090058;28;20059;-76
2023/08/11 10:43:37;;;;;;;3.10;2.75;;;28.70;1.00;;;;;;5063796;28;20044;-75
2023/08/11 10:46:31;;;;;;;2.90;2.33;;;29.00;99.90;;;;;;5080764;28;20070;-76
2023/08/11 10:49:21;;;;;;;4.07;2.70;;;28.90;1.00;;;;;;5081555;28;20294;-75
2023/08/11 10:51:47;;;;;;;3.10;2.30;;;28.80;99.90;;;;;;5064072;28;20032;-76
2023/08/11 10:54:22;;;;;;;3.28;2.45;;;28.90;1.00;;;;;;5085347;28;20027;-78
2023/08/11 10:56:50;;;;;;;3.17;2.55;;;29.00;99.90;;;;;;5089078;28;20050;-78
2023/08/11 10:59:23;;;;;;;4.13;2.53;;;29.30;99.90;;;;;;5096254;28;20042;-77
2023/08/11 11:01:51;;;;;;;2.72;2.47;;;29.50;99.90;;;;;;5093877;28;20028;-77
2023/08/11 11:04:19;;;;;;;2.55;2.20;;;29.50;76.40;;;;;;5099508;28;20036;-77
2023/08/11 11:06:45;;;;;;;3.30;2.53;;;29.60;99.90;;;;;;5095290;28;20032;-77
2023/08/11 11:09:13;;;;;;;2.92;2.10;;;29.40;99.90;;;;;;5098263;28;20059;-77
2023/08/11 11:11:38;;;;;;;4.18;2.10;;;29.40;3.20;;;;;;5080194;28;20048;-77
2023/08/11 11:14:10;;;;;;;4.55;2.60;;;29.80;35.90;;;;;;5074284;28;20036;-77
2023/08/11 11:16:36;;;;;;;3.17;2.58;;;29.70;99.90;;;;;;5089217;28;20024;-77
2023/08/11 11:19:04;;;;;;;4.78;2.70;;;29.70;99.90;;;;;;5094146;28;20329;-77
2023/08/11 11:21:30;;;;;;;2.90;2.40;;;29.60;99.90;;;;;;5076082;28;20034;-79
2023/08/11 11:23:57;;;;;;;3.13;2.50;;;29.70;1.00;;;;;;5095039;28;20103;-78
2023/08/11 11:26:22;;;;;;;3.10;2.30;;;29.80;1.00;;;;;;5078559;28;20028;-78
2023/08/11 11:28:49;;;;;;;2.50;2.30;;;29.90;99.90;;;;;;5094101;28;20104;-77
2023/08/11 11:31:16;;;;;;;3.25;2.40;;;30.20;1.00;;;;;;5074770;28;20081;-77
2023/08/11 11:33:42;;;;;;;3.08;2.50;;;30.20;99.90;;;;;;5078206;28;20248;-78
2023/08/11 11:36:08;;;;;;;2.80;2.28;;;30.50;99.90;;;;;;5081222;28;20110;-75
2023/08/11 11:38:34;;;;;;;4.30;2.60;;;30.20;1.00;;;;;;5078384;28;20044;-75
2023/08/11 11:41:00;;;;;;;4.88;2.30;;;30.30;99.90;;;;;;5096652;28;20081;-75
2023/08/11 11:43:26;;;;;;;2.95;2.47;;;30.60;99.90;;;;;;5069246;28;20084;-75
2023/08/11 11:45:53;;;;;;;3.05;2.20;;;30.50;99.90;;;;;;5066838;28;20027;-75
2023/08/11 11:48:23;;;;;;;3.95;2.50;;;30.10;99.90;;;;;;5079324;28;20103;-76
2023/08/11 11:50:50;;;;;;;2.60;1.85;;;30.20;99.90;;;;;;5080303;28;20398;-75
2023/08/11 11:53:16;;;;;;;3.90;2.25;;;30.30;99.90;;;;;;5092255;28;20043;-76
2023/08/11 11:55:46;;;;;;;3.58;2.70;;;30.50;1.00;;;;;;5076985;28;20035;-77
2023/08/11 11:58:16;;;;;;;2.70;2.40;;;30.50;1.00;;;;;;5091297;28;20039;-75
2023/08/11 12:00:46;;;;;;;6.72;2.40;;;30.40;92.90;;;;;;5080528;28;20059;-75
2023/08/11 12:03:12;;;;;;;4.15;2.40;;;30.60;1.00;;;;;;5080222;28;20034;-75
2023/08/11 12:05:37;;;;;;;4.47;2.65;;;30.50;99.90;;;;;;5069167;28;20024;-75
2023/08/11 12:08:36;;;;;;;2.45;2.25;;;30.30;99.90;;;;;;5074635;28;20016;-75
2023/08/11 12:11:03;;;;;;;2.75;2.25;;;30.30;44.60;;;;;;5036149;28;20089;-77
2023/08/11 12:13:31;;;;;;;5.35;3.03;;;30.20;99.90;;;;;;5096398;28;20149;-77
2023/08/11 12:15:59;;;;;;;3.03;2.42;;;30.20;1.00;;;;;;5062127;28;20040;-77
2023/08/11 12:18:27;;;;;;;3.38;2.45;;;30.60;99.90;;;;;;5077172;28;20073;-77
2023/08/11 12:20:52;;;;;;;3.08;2.55;;;30.60;99.90;;;;;;5100349;28;20032;-76
2023/08/11 12:23:18;;;;;;;5.32;2.70;;;30.50;99.90;;;;;;5084132;28;20044;-78
2023/08/11 12:25:44;;;;;;;3.35;2.70;;;30.60;73.40;;;;;;5097405;28;20028;-78
2023/08/11 12:28:09;;;;;;;2.90;2.30;;;30.60;10.20;;;;;;5093364;28;20027;-78
2023/08/11 12:30:35;;;;;;;4.38;2.55;;;30.80;92.00;;;;;;5059049;28;20031;-77
2023/08/11 12:33:01;;;;;;;3.88;2.38;;;30.70;99.90;;;;;;5079887;28;20036;-78
2023/08/11 12:35:27;;;;;;;7.07;2.60;;;30.70;99.90;;;;;;5095114;28;20439;-78
2023/08/11 12:37:53;;;;;;;3.10;2.60;;;30.70;99.90;;;;;;5078153;28;20027;-78
2023/08/11 12:40:18;;;;;;;2.58;2.38;;;30.90;1.00;;;;;;5095212;28;20031;-77
2023/08/11 12:42:44;;;;;;;4.22;2.40;;;30.80;1.00;;;;;;5069809;28;20043;-79
2023/08/11 12:45:11;;;;;;;4.72;2.67;;;30.80;1.00;;;;;;5096413;28;20077;-78